sensor_id;sensor_type;location;lat;lon;timestamp;P1;durP1;ratioP1;P2;durP2;ratioP2
13799;SDS011;6971;50.028;9.258;2024-01-11T00:02:18;14.60;;;4.87;;
13799;SDS011;6971;50.028;9.258;2024-01-11T00:07:18;10.07;;;5.80;;
13799;SDS011;6971;50.028;9.258;2024-01-11T00:12:19;12.37;;;5.20;;
13799;SDS011;6971;50.028;9.258;2024-01-11T00:17:19;10.77;;;5.53;;
13799;SDS011;6971;50.028;9.258;2024-01-11T00:22:19;11.53;;;5.50;;
13799;SDS011;6971;50.028;9.258;2024-01-11T00:27:20;8.97;;;5.47;;
13799;SDS011;6971;50.028;9.258;2024-01-11T00:32:20;8.07;;;4.43;;
13799;SDS011;6971;50.028;9.258;2024-01-11T00:37:23;6.60;;;4.67;;
13799;SDS011;6971;50.028;9.258;2024-01-11T00:42:25;7.17;;;4.10;;
13799;SDS011;6971;50.028;9.258;2024-01-11T00:47:25;9.13;;;5.57;;
13799;SDS011;6971;50.028;9.258;2024-01-11T00:52:26;9.83;;;6.00;;
13799;SDS011;6971;50.028;9.258;2024-01-11T00:57:26;5.37;;;4.30;;
13799;SDS011;6971;50.028;9.258;2024-01-11T01:02:27;5.83;;;4.03;;
13799;SDS011;6971;50.028;9.258;2024-01-11T01:07:27;10.20;;;5.27;;
13799;SDS011;6971;50.028;9.258;2024-01-11T01:12:28;6.77;;;4.80;;
13799;SDS011;6971;50.028;9.258;2024-01-11T01:17:28;8.60;;;4.80;;
13799;SDS011;6971;50.028;9.258;2024-01-11T01:22:29;9.80;;;5.37;;
13799;SDS011;6971;50.028;9.258;2024-01-11T01:27:29;12.93;;;4.83;;
13799;SDS011;6971;50.028;9.258;2024-01-11T01:32:29;3.63;;;3.30;;
13799;SDS011;6971;50.028;9.258;2024-01-11T01:37:30;10.53;;;4.70;;
13799;SDS011;6971;50.028;9.258;2024-01-11T01:42:31;4.90;;;2.93;;
13799;SDS011;6971;50.028;9.258;2024-01-11T01:47:31;9.00;;;3.87;;
13799;SDS011;6971;50.028;9.258;2024-01-11T01:52:31;6.20;;;4.10;;
13799;SDS011;6971;50.028;9.258;2024-01-11T01:57:33;6.10;;;3.33;;
13799;SDS011;6971;50.028;9.258;2024-01-11T02:02:35;8.20;;;4.73;;
13799;SDS011;6971;50.028;9.258;2024-01-11T02:07:35;8.83;;;3.67;;
13799;SDS011;6971;50.028;9.258;2024-01-11T02:12:36;5.23;;;3.67;;
13799;SDS011;6971;50.028;9.258;2024-01-11T02:17:39;4.97;;;4.07;;
13799;SDS011;6971;50.028;9.258;2024-01-11T02:22:42;6.77;;;4.00;;
13799;SDS011;6971;50.028;9.258;2024-01-11T02:27:50;5.83;;;3.67;;
13799;SDS011;6971;50.028;9.258;2024-01-11T02:32:50;4.27;;;3.53;;
13799;SDS011;6971;50.028;9.258;2024-01-11T02:37:51;8.13;;;3.70;;
13799;SDS011;6971;50.028;9.258;2024-01-11T02:42:52;7.67;;;3.00;;
13799;SDS011;6971;50.028;9.258;2024-01-11T02:47:52;7.03;;;3.27;;
13799;SDS011;6971;50.028;9.258;2024-01-11T02:52:52;19.27;;;3.23;;
13799;SDS011;6971;50.028;9.258;2024-01-11T02:57:53;4.37;;;3.37;;
13799;SDS011;6971;50.028;9.258;2024-01-11T03:02:53;5.27;;;3.53;;
13799;SDS011;6971;50.028;9.258;2024-01-11T03:07:53;5.47;;;3.10;;
13799;SDS011;6971;50.028;9.258;2024-01-11T03:12:54;7.40;;;5.17;;
13799;SDS011;6971;50.028;9.258;2024-01-11T03:17:54;5.27;;;4.30;;
13799;SDS011;6971;50.028;9.258;2024-01-11T03:22:55;9.77;;;4.87;;
13799;SDS011;6971;50.028;9.258;2024-01-11T03:27:55;5.77;;;3.80;;
13799;SDS011;6971;50.028;9.258;2024-01-11T03:32:55;5.30;;;3.87;;
13799;SDS011;6971;50.028;9.258;2024-01-11T03:37:56;6.03;;;4.57;;
13799;SDS011;6971;50.028;9.258;2024-01-11T03:42:56;7.27;;;3.43;;
13799;SDS011;6971;50.028;9.258;2024-01-11T03:47:57;6.13;;;3.30;;
13799;SDS011;6971;50.028;9.258;2024-01-11T03:52:57;5.40;;;3.93;;
13799;SDS011;6971;50.028;9.258;2024-01-11T03:57:57;5.73;;;3.50;;
13799;SDS011;6971;50.028;9.258;2024-01-11T04:02:59;6.87;;;4.30;;
13799;SDS011;6971;50.028;9.258;2024-01-11T04:08:05;7.40;;;3.90;;
13799;SDS011;6971;50.028;9.258;2024-01-11T04:13:07;11.13;;;5.10;;
13799;SDS011;6971;50.028;9.258;2024-01-11T04:18:07;6.57;;;4.47;;
13799;SDS011;6971;50.028;9.258;2024-01-11T04:23:08;5.47;;;4.57;;
13799;SDS011;6971;50.028;9.258;2024-01-11T04:28:08;8.17;;;5.97;;
13799;SDS011;6971;50.028;9.258;2024-01-11T04:33:09;4.83;;;4.07;;
13799;SDS011;6971;50.028;9.258;2024-01-11T04:38:10;9.63;;;3.50;;
13799;SDS011;6971;50.028;9.258;2024-01-11T04:43:10;6.70;;;3.07;;
13799;SDS011;6971;50.028;9.258;2024-01-11T04:48:11;8.43;;;4.23;;
13799;SDS011;6971;50.028;9.258;2024-01-11T04:53:11;8.50;;;4.37;;
13799;SDS011;6971;50.028;9.258;2024-01-11T04:58:12;2.43;;;2.10;;
13799;SDS011;6971;50.028;9.258;2024-01-11T05:03:12;9.40;;;5.37;;
13799;SDS011;6971;50.028;9.258;2024-01-11T05:08:12;5.73;;;3.73;;
13799;SDS011;6971;50.028;9.258;2024-01-11T05:13:13;5.30;;;3.00;;
13799;SDS011;6971;50.028;9.258;2024-01-11T05:18:13;9.33;;;3.67;;
13799;SDS011;6971;50.028;9.258;2024-01-11T05:23:14;7.03;;;2.97;;
13799;SDS011;6971;50.028;9.258;2024-01-11T05:28:14;13.23;;;4.27;;
13799;SDS011;6971;50.028;9.258;2024-01-11T05:33:14;8.87;;;3.73;;
13799;SDS011;6971;50.028;9.258;2024-01-11T05:38:15;8.63;;;6.53;;
13799;SDS011;6971;50.028;9.258;2024-01-11T05:43:15;9.80;;;5.73;;
13799;SDS011;6971;50.028;9.258;2024-01-11T05:48:16;6.63;;;3.90;;
13799;SDS011;6971;50.028;9.258;2024-01-11T05:53:17;11.77;;;4.80;;
13799;SDS011;6971;50.028;9.258;2024-01-11T05:58:20;7.30;;;3.97;;
13799;SDS011;6971;50.028;9.258;2024-01-11T06:03:21;4.40;;;3.50;;
13799;SDS011;6971;50.028;9.258;2024-01-11T06:08:21;12.47;;;4.93;;
13799;SDS011;6971;50.028;9.258;2024-01-11T06:13:21;9.70;;;4.33;;
13799;SDS011;6971;50.028;9.258;2024-01-11T06:18:22;6.50;;;3.80;;
13799;SDS011;6971;50.028;9.258;2024-01-11T06:23:23;8.57;;;4.23;;
13799;SDS011;6971;50.028;9.258;2024-01-11T06:28:24;7.03;;;3.43;;
13799;SDS011;6971;50.028;9.258;2024-01-11T06:33:25;7.60;;;4.40;;
13799;SDS011;6971;50.028;9.258;2024-01-11T06:38:25;3.33;;;3.10;;
13799;SDS011;6971;50.028;9.258;2024-01-11T06:43:25;5.00;;;3.80;;
13799;SDS011;6971;50.028;9.258;2024-01-11T06:48:26;8.03;;;4.60;;
13799;SDS011;6971;50.028;9.258;2024-01-11T06:53:26;9.60;;;4.57;;
13799;SDS011;6971;50.028;9.258;2024-01-11T06:58:26;14.43;;;6.17;;
13799;SDS011;6971;50.028;9.258;2024-01-11T07:03:27;7.33;;;4.90;;
13799;SDS011;6971;50.028;9.258;2024-01-11T07:08:27;12.90;;;4.50;;
13799;SDS011;6971;50.028;9.258;2024-01-11T07:13:28;3.67;;;3.37;;
13799;SDS011;6971;50.028;9.258;2024-01-11T07:18:29;18.53;;;4.47;;
13799;SDS011;6971;50.028;9.258;2024-01-11T07:23:31;8.53;;;4.53;;
13799;SDS011;6971;50.028;9.258;2024-01-11T07:28:31;4.50;;;4.10;;
13799;SDS011;6971;50.028;9.258;2024-01-11T07:33:31;5.50;;;3.43;;
13799;SDS011;6971;50.028;9.258;2024-01-11T07:38:32;4.97;;;3.60;;
13799;SDS011;6971;50.028;9.258;2024-01-11T07:43:32;6.93;;;4.43;;
13799;SDS011;6971;50.028;9.258;2024-01-11T07:48:35;7.03;;;4.40;;
13799;SDS011;6971;50.028;9.258;2024-01-11T07:53:35;7.83;;;3.93;;
13799;SDS011;6971;50.028;9.258;2024-01-11T07:58:35;14.00;;;6.07;;
13799;SDS011;6971;50.028;9.258;2024-01-11T08:03:37;16.60;;;6.33;;
13799;SDS011;6971;50.028;9.258;2024-01-11T08:08:37;17.30;;;7.10;;
13799;SDS011;6971;50.028;9.258;2024-01-11T08:13:41;9.47;;;5.43;;
13799;SDS011;6971;50.028;9.258;2024-01-11T08:18:41;15.10;;;6.77;;
13799;SDS011;6971;50.028;9.258;2024-01-11T08:23:42;9.53;;;5.67;;
13799;SDS011;6971;50.028;9.258;2024-01-11T08:28:47;9.07;;;5.10;;
13799;SDS011;6971;50.028;9.258;2024-01-11T08:33:48;15.60;;;8.60;;
13799;SDS011;6971;50.028;9.258;2024-01-11T08:38:48;7.87;;;5.80;;
13799;SDS011;6971;50.028;9.258;2024-01-11T08:43:49;15.37;;;9.20;;
13799;SDS011;6971;50.028;9.258;2024-01-11T08:48:54;12.50;;;6.53;;
13799;SDS011;6971;50.028;9.258;2024-01-11T08:53:56;12.80;;;6.13;;
13799;SDS011;6971;50.028;9.258;2024-01-11T08:58:57;10.30;;;7.70;;
13799;SDS011;6971;50.028;9.258;2024-01-11T09:03:58;12.87;;;8.23;;
13799;SDS011;6971;50.028;9.258;2024-01-11T09:08:59;14.50;;;9.53;;
13799;SDS011;6971;50.028;9.258;2024-01-11T09:13:59;16.07;;;8.53;;
13799;SDS011;6971;50.028;9.258;2024-01-11T09:19:00;14.43;;;7.80;;
13799;SDS011;6971;50.028;9.258;2024-01-11T09:24:00;18.77;;;8.30;;
13799;SDS011;6971;50.028;9.258;2024-01-11T09:29:01;21.17;;;10.20;;
13799;SDS011;6971;50.028;9.258;2024-01-11T09:34:01;18.67;;;8.67;;
13799;SDS011;6971;50.028;9.258;2024-01-11T09:39:01;16.77;;;9.77;;
13799;SDS011;6971;50.028;9.258;2024-01-11T09:44:02;26.73;;;12.27;;
13799;SDS011;6971;50.028;9.258;2024-01-11T09:49:04;24.37;;;12.77;;
13799;SDS011;6971;50.028;9.258;2024-01-11T09:54:06;27.00;;;13.37;;
13799;SDS011;6971;50.028;9.258;2024-01-11T09:59:07;34.83;;;15.53;;
13799;SDS011;6971;50.028;9.258;2024-01-11T10:04:09;22.17;;;12.33;;
13799;SDS011;6971;50.028;9.258;2024-01-11T10:09:13;20.87;;;11.77;;
13799;SDS011;6971;50.028;9.258;2024-01-11T10:14:13;27.93;;;13.50;;
13799;SDS011;6971;50.028;9.258;2024-01-11T10:19:14;19.83;;;11.00;;
13799;SDS011;6971;50.028;9.258;2024-01-11T10:24:19;23.73;;;11.50;;
13799;SDS011;6971;50.028;9.258;2024-01-11T10:29:32;23.93;;;11.87;;
13799;SDS011;6971;50.028;9.258;2024-01-11T10:34:35;19.63;;;10.07;;
13799;SDS011;6971;50.028;9.258;2024-01-11T10:39:39;25.87;;;12.27;;
13799;SDS011;6971;50.028;9.258;2024-01-11T10:44:41;27.70;;;13.20;;
13799;SDS011;6971;50.028;9.258;2024-01-11T10:49:46;26.23;;;13.87;;
13799;SDS011;6971;50.028;9.258;2024-01-11T10:54:52;27.60;;;13.17;;
13799;SDS011;6971;50.028;9.258;2024-01-11T10:59:52;23.87;;;13.47;;
13799;SDS011;6971;50.028;9.258;2024-01-11T11:04:54;34.13;;;14.80;;
13799;SDS011;6971;50.028;9.258;2024-01-11T11:09:56;23.60;;;13.80;;
13799;SDS011;6971;50.028;9.258;2024-01-11T11:14:58;33.63;;;15.03;;
13799;SDS011;6971;50.028;9.258;2024-01-11T11:20:00;26.37;;;14.60;;
13799;SDS011;6971;50.028;9.258;2024-01-11T11:25:03;26.67;;;13.90;;
13799;SDS011;6971;50.028;9.258;2024-01-11T11:30:08;30.07;;;14.83;;
13799;SDS011;6971;50.028;9.258;2024-01-11T11:35:10;29.80;;;15.33;;
13799;SDS011;6971;50.028;9.258;2024-01-11T11:40:10;26.17;;;15.07;;
13799;SDS011;6971;50.028;9.258;2024-01-11T11:45:10;29.13;;;16.30;;
13799;SDS011;6971;50.028;9.258;2024-01-11T11:50:11;28.57;;;16.00;;
13799;SDS011;6971;50.028;9.258;2024-01-11T11:55:13;32.53;;;17.23;;
13799;SDS011;6971;50.028;9.258;2024-01-11T12:00:14;31.63;;;16.77;;
13799;SDS011;6971;50.028;9.258;2024-01-11T12:05:17;27.40;;;14.83;;
13799;SDS011;6971;50.028;9.258;2024-01-11T12:10:18;30.83;;;14.07;;
13799;SDS011;6971;50.028;9.258;2024-01-11T12:15:18;30.97;;;15.00;;
13799;SDS011;6971;50.028;9.258;2024-01-11T12:20:19;23.53;;;14.40;;
13799;SDS011;6971;50.028;9.258;2024-01-11T12:25:21;32.83;;;14.93;;
13799;SDS011;6971;50.028;9.258;2024-01-11T12:30:22;29.40;;;15.80;;
13799;SDS011;6971;50.028;9.258;2024-01-11T12:35:23;34.23;;;15.20;;
13799;SDS011;6971;50.028;9.258;2024-01-11T12:40:24;28.47;;;16.27;;
13799;SDS011;6971;50.028;9.258;2024-01-11T12:45:26;38.20;;;15.63;;
13799;SDS011;6971;50.028;9.258;2024-01-11T12:50:27;35.47;;;16.77;;
13799;SDS011;6971;50.028;9.258;2024-01-11T12:55:28;37.03;;;16.67;;
13799;SDS011;6971;50.028;9.258;2024-01-11T13:00:29;35.53;;;17.23;;
13799;SDS011;6971;50.028;9.258;2024-01-11T13:05:29;31.00;;;17.20;;
13799;SDS011;6971;50.028;9.258;2024-01-11T13:10:36;41.10;;;17.53;;
13799;SDS011;6971;50.028;9.258;2024-01-11T13:15:37;35.83;;;18.13;;
13799;SDS011;6971;50.028;9.258;2024-01-11T13:20:37;32.77;;;17.90;;
13799;SDS011;6971;50.028;9.258;2024-01-11T13:25:38;41.57;;;19.73;;
13799;SDS011;6971;50.028;9.258;2024-01-11T13:30:38;47.10;;;21.93;;
13799;SDS011;6971;50.028;9.258;2024-01-11T13:35:40;49.63;;;22.93;;
13799;SDS011;6971;50.028;9.258;2024-01-11T13:40:42;41.20;;;18.40;;
13799;SDS011;6971;50.028;9.258;2024-01-11T13:45:43;45.37;;;19.53;;
13799;SDS011;6971;50.028;9.258;2024-01-11T13:50:44;40.33;;;19.80;;
13799;SDS011;6971;50.028;9.258;2024-01-11T13:55:44;41.47;;;20.13;;
13799;SDS011;6971;50.028;9.258;2024-01-11T14:00:45;41.80;;;20.20;;
13799;SDS011;6971;50.028;9.258;2024-01-11T14:05:45;43.57;;;22.03;;
13799;SDS011;6971;50.028;9.258;2024-01-11T14:10:46;45.50;;;20.00;;
13799;SDS011;6971;50.028;9.258;2024-01-11T14:15:46;44.00;;;20.40;;
13799;SDS011;6971;50.028;9.258;2024-01-11T14:20:48;44.33;;;19.43;;
13799;SDS011;6971;50.028;9.258;2024-01-11T14:25:48;57.40;;;22.40;;
13799;SDS011;6971;50.028;9.258;2024-01-11T14:30:49;42.47;;;20.10;;
13799;SDS011;6971;50.028;9.258;2024-01-11T14:35:49;38.53;;;17.73;;
13799;SDS011;6971;50.028;9.258;2024-01-11T14:40:49;39.20;;;17.10;;
13799;SDS011;6971;50.028;9.258;2024-01-11T14:45:50;35.60;;;17.83;;
13799;SDS011;6971;50.028;9.258;2024-01-11T14:50:51;38.37;;;17.63;;
13799;SDS011;6971;50.028;9.258;2024-01-11T14:55:51;39.97;;;16.30;;
13799;SDS011;6971;50.028;9.258;2024-01-11T15:00:51;33.23;;;17.23;;
13799;SDS011;6971;50.028;9.258;2024-01-11T15:05:52;40.83;;;17.23;;
13799;SDS011;6971;50.028;9.258;2024-01-11T15:10:52;32.00;;;16.50;;
13799;SDS011;6971;50.028;9.258;2024-01-11T15:15:53;36.67;;;17.27;;
13799;SDS011;6971;50.028;9.258;2024-01-11T15:20:53;40.23;;;16.93;;
13799;SDS011;6971;50.028;9.258;2024-01-11T15:25:54;38.27;;;15.17;;
13799;SDS011;6971;50.028;9.258;2024-01-11T15:30:54;34.27;;;14.33;;
13799;SDS011;6971;50.028;9.258;2024-01-11T15:35:55;34.17;;;14.83;;
13799;SDS011;6971;50.028;9.258;2024-01-11T15:40:55;42.03;;;13.73;;
13799;SDS011;6971;50.028;9.258;2024-01-11T15:45:56;25.13;;;15.13;;
13799;SDS011;6971;50.028;9.258;2024-01-11T15:50:56;36.10;;;14.37;;
13799;SDS011;6971;50.028;9.258;2024-01-11T15:55:57;34.87;;;15.13;;
13799;SDS011;6971;50.028;9.258;2024-01-11T16:00:57;27.33;;;12.27;;
13799;SDS011;6971;50.028;9.258;2024-01-11T16:05:58;27.70;;;13.57;;
13799;SDS011;6971;50.028;9.258;2024-01-11T16:10:58;32.33;;;14.77;;
13799;SDS011;6971;50.028;9.258;2024-01-11T16:15:59;24.90;;;13.83;;
13799;SDS011;6971;50.028;9.258;2024-01-11T16:20:59;23.20;;;12.23;;
13799;SDS011;6971;50.028;9.258;2024-01-11T16:26:00;32.97;;;14.80;;
13799;SDS011;6971;50.028;9.258;2024-01-11T16:31:00;28.43;;;12.00;;
13799;SDS011;6971;50.028;9.258;2024-01-11T16:36:03;31.73;;;13.83;;
13799;SDS011;6971;50.028;9.258;2024-01-11T16:41:04;32.97;;;14.30;;
13799;SDS011;6971;50.028;9.258;2024-01-11T16:46:07;38.83;;;16.07;;
13799;SDS011;6971;50.028;9.258;2024-01-11T16:51:07;28.80;;;14.03;;
13799;SDS011;6971;50.028;9.258;2024-01-11T16:56:07;34.33;;;13.63;;
13799;SDS011;6971;50.028;9.258;2024-01-11T17:01:09;31.63;;;15.70;;
13799;SDS011;6971;50.028;9.258;2024-01-11T17:06:09;31.23;;;15.43;;
13799;SDS011;6971;50.028;9.258;2024-01-11T17:11:10;29.37;;;13.63;;
13799;SDS011;6971;50.028;9.258;2024-01-11T17:16:17;30.73;;;13.30;;
13799;SDS011;6971;50.028;9.258;2024-01-11T17:21:18;28.47;;;13.57;;
13799;SDS011;6971;50.028;9.258;2024-01-11T17:26:18;31.93;;;13.17;;
13799;SDS011;6971;50.028;9.258;2024-01-11T17:31:18;34.37;;;13.47;;
13799;SDS011;6971;50.028;9.258;2024-01-11T17:36:19;35.93;;;15.23;;
13799;SDS011;6971;50.028;9.258;2024-01-11T17:41:19;29.03;;;12.67;;
13799;SDS011;6971;50.028;9.258;2024-01-11T17:46:20;25.43;;;12.70;;
13799;SDS011;6971;50.028;9.258;2024-01-11T17:51:22;32.57;;;12.57;;
13799;SDS011;6971;50.028;9.258;2024-01-11T17:56:23;28.73;;;13.20;;
13799;SDS011;6971;50.028;9.258;2024-01-11T18:01:24;28.60;;;12.70;;
13799;SDS011;6971;50.028;9.258;2024-01-11T18:06:25;24.47;;;12.33;;
13799;SDS011;6971;50.028;9.258;2024-01-11T18:11:26;26.10;;;12.90;;
13799;SDS011;6971;50.028;9.258;2024-01-11T18:16:26;21.83;;;10.37;;
13799;SDS011;6971;50.028;9.258;2024-01-11T18:21:26;27.33;;;12.63;;
13799;SDS011;6971;50.028;9.258;2024-01-11T18:26:28;24.67;;;12.27;;
13799;SDS011;6971;50.028;9.258;2024-01-11T18:31:28;27.97;;;13.53;;
13799;SDS011;6971;50.028;9.258;2024-01-11T18:36:29;31.67;;;10.87;;
13799;SDS011;6971;50.028;9.258;2024-01-11T18:41:29;15.70;;;9.20;;
13799;SDS011;6971;50.028;9.258;2024-01-11T18:46:30;25.73;;;12.57;;
13799;SDS011;6971;50.028;9.258;2024-01-11T18:51:30;25.70;;;12.13;;
13799;SDS011;6971;50.028;9.258;2024-01-11T18:56:30;25.43;;;12.97;;
13799;SDS011;6971;50.028;9.258;2024-01-11T19:01:31;31.13;;;12.30;;
13799;SDS011;6971;50.028;9.258;2024-01-11T19:06:31;22.30;;;11.07;;
13799;SDS011;6971;50.028;9.258;2024-01-11T19:11:31;24.87;;;9.97;;
13799;SDS011;6971;50.028;9.258;2024-01-11T19:16:32;31.23;;;12.43;;
13799;SDS011;6971;50.028;9.258;2024-01-11T19:21:32;24.73;;;11.07;;
13799;SDS011;6971;50.028;9.258;2024-01-11T19:26:33;26.80;;;11.90;;
13799;SDS011;6971;50.028;9.258;2024-01-11T19:31:33;26.13;;;11.07;;
13799;SDS011;6971;50.028;9.258;2024-01-11T19:36:40;25.60;;;10.73;;
13799;SDS011;6971;50.028;9.258;2024-01-11T19:41:41;26.47;;;11.73;;
13799;SDS011;6971;50.028;9.258;2024-01-11T19:46:42;27.63;;;9.47;;
13799;SDS011;6971;50.028;9.258;2024-01-11T19:51:43;22.27;;;11.57;;
13799;SDS011;6971;50.028;9.258;2024-01-11T19:56:44;33.00;;;13.73;;
13799;SDS011;6971;50.028;9.258;2024-01-11T20:01:44;30.03;;;12.63;;
13799;SDS011;6971;50.028;9.258;2024-01-11T20:06:44;27.57;;;13.57;;
13799;SDS011;6971;50.028;9.258;2024-01-11T20:11:45;20.17;;;10.80;;
13799;SDS011;6971;50.028;9.258;2024-01-11T20:16:46;23.83;;;12.00;;
13799;SDS011;6971;50.028;9.258;2024-01-11T20:21:46;23.57;;;10.40;;
13799;SDS011;6971;50.028;9.258;2024-01-11T20:26:47;17.73;;;9.93;;
13799;SDS011;6971;50.028;9.258;2024-01-11T20:31:47;20.27;;;11.90;;
13799;SDS011;6971;50.028;9.258;2024-01-11T20:36:48;27.70;;;11.47;;
13799;SDS011;6971;50.028;9.258;2024-01-11T20:41:48;31.17;;;10.93;;
13799;SDS011;6971;50.028;9.258;2024-01-11T20:46:48;19.30;;;9.67;;
13799;SDS011;6971;50.028;9.258;2024-01-11T20:51:49;17.47;;;11.07;;
13799;SDS011;6971;50.028;9.258;2024-01-11T20:56:49;24.53;;;10.53;;
13799;SDS011;6971;50.028;9.258;2024-01-11T21:01:50;29.70;;;12.93;;
13799;SDS011;6971;50.028;9.258;2024-01-11T21:06:50;29.50;;;11.40;;
13799;SDS011;6971;50.028;9.258;2024-01-11T21:11:50;21.23;;;12.43;;
13799;SDS011;6971;50.028;9.258;2024-01-11T21:16:51;20.50;;;10.00;;
13799;SDS011;6971;50.028;9.258;2024-01-11T21:21:51;24.40;;;11.90;;
13799;SDS011;6971;50.028;9.258;2024-01-11T21:26:52;26.47;;;13.93;;
13799;SDS011;6971;50.028;9.258;2024-01-11T21:31:52;28.87;;;11.73;;
13799;SDS011;6971;50.028;9.258;2024-01-11T21:36:53;22.07;;;10.77;;
13799;SDS011;6971;50.028;9.258;2024-01-11T21:41:54;21.23;;;11.63;;
13799;SDS011;6971;50.028;9.258;2024-01-11T21:46:54;26.60;;;11.30;;
13799;SDS011;6971;50.028;9.258;2024-01-11T21:51:54;29.37;;;13.50;;
13799;SDS011;6971;50.028;9.258;2024-01-11T21:56:55;23.50;;;10.73;;
13799;SDS011;6971;50.028;9.258;2024-01-11T22:01:57;22.17;;;10.67;;
13799;SDS011;6971;50.028;9.258;2024-01-11T22:06:57;21.73;;;11.20;;
13799;SDS011;6971;50.028;9.258;2024-01-11T22:11:57;30.07;;;11.87;;
13799;SDS011;6971;50.028;9.258;2024-01-11T22:16:58;21.53;;;11.87;;
13799;SDS011;6971;50.028;9.258;2024-01-11T22:21:58;28.77;;;12.83;;
13799;SDS011;6971;50.028;9.258;2024-01-11T22:26:58;27.73;;;10.07;;
13799;SDS011;6971;50.028;9.258;2024-01-11T22:31:59;28.60;;;10.20;;
13799;SDS011;6971;50.028;9.258;2024-01-11T22:37:00;20.50;;;10.53;;
13799;SDS011;6971;50.028;9.258;2024-01-11T22:42:00;24.63;;;10.17;;
13799;SDS011;6971;50.028;9.258;2024-01-11T22:47:00;18.83;;;9.90;;
13799;SDS011;6971;50.028;9.258;2024-01-11T22:52:01;22.40;;;9.70;;
13799;SDS011;6971;50.028;9.258;2024-01-11T22:57:01;16.43;;;8.73;;
13799;SDS011;6971;50.028;9.258;2024-01-11T23:02:02;17.63;;;9.83;;
13799;SDS011;6971;50.028;9.258;2024-01-11T23:07:03;25.37;;;10.00;;
13799;SDS011;6971;50.028;9.258;2024-01-11T23:12:04;24.57;;;9.60;;
13799;SDS011;6971;50.028;9.258;2024-01-11T23:17:04;22.10;;;8.23;;
13799;SDS011;6971;50.028;9.258;2024-01-11T23:22:06;20.10;;;9.97;;
13799;SDS011;6971;50.028;9.258;2024-01-11T23:27:06;26.70;;;9.70;;
13799;SDS011;6971;50.028;9.258;2024-01-11T23:32:08;17.67;;;9.73;;
13799;SDS011;6971;50.028;9.258;2024-01-11T23:37:09;20.10;;;9.77;;
13799;SDS011;6971;50.028;9.258;2024-01-11T23:42:10;13.63;;;7.10;;
13799;SDS011;6971;50.028;9.258;2024-01-11T23:47:12;20.43;;;9.67;;
13799;SDS011;6971;50.028;9.258;2024-01-11T23:52:12;20.27;;;9.33;;
13799;SDS011;6971;50.028;9.258;2024-01-11T23:57:12;18.77;;;8.53;;
